Big Bear Station Historical Data
Daily Summary for March 27, 2017 Units:  English    Metric   Both
« Previous Day
Next Day »
Daily Weekly Monthly Yearly Custom
  High: Low: Average:
Temperature: 48.7 °F 32.0 °F 38.5 °F
Dew Point: 33.4 °F 20.0 °F 29.4 °F
Humidity: 91 % 39 % 71 %
Wind Speed: 11.4 mph 0.0 mph 4.8 mph
Wind Gust: -999.0 mph - -
Wind:- - West
Pressure: 30.12 in 30.02 in -
Precipitation: 0.00 in    
Historical Graphs
 
 
Tabular Data for March 27, 2017
Time Temperature Dew Point Pressure Wind Wind Speed Wind Gust Humidity Rainfall Rate (Hourly)
00:10 37.6 °F 31.7 °F 30.11 in Calm   -999.0 mph 79 % 0 in
00:25 36.9 °F 31.3 °F 30.10 in South 2.2 mph -999.0 mph 80 % 0 in
00:40 36.3 °F 30.7 °F 30.10 in Calm   -999.0 mph 80 % 0 in
00:55 36.7 °F 30.8 °F 30.10 in Calm   -999.0 mph 79 % 0 in
01:11 37.2 °F 31.0 °F 30.10 in SE 1.1 mph -999.0 mph 78 % 0 in
01:26 36.7 °F 30.8 °F 30.09 in South 1.1 mph -999.0 mph 79 % 0 in
01:41 36.1 °F 31.1 °F 30.09 in Calm   -999.0 mph 82 % 0 in
01:57 35.6 °F 31.2 °F 30.09 in South 2.2 mph -999.0 mph 84 % 0 in
02:12 35.1 °F 31.3 °F 30.09 in SSE 2.2 mph -999.0 mph 86 % 0 in
02:27 35.1 °F 31.6 °F 30.08 in SW 1.7 mph -999.0 mph 87 % 0 in
02:43 34.9 °F 31.4 °F 30.07 in Calm   -999.0 mph 87 % 0 in
02:58 36.7 °F 32.9 °F 30.07 in SSE 2.2 mph -999.0 mph 86 % 0 in
03:13 37.0 °F 32.9 °F 30.07 in Calm   -999.0 mph 85 % 0 in
03:28 35.6 °F 31.2 °F 30.07 in SE 1.7 mph -999.0 mph 84 % 0 in
03:43 35.6 °F 32.1 °F 30.06 in NNE 2.2 mph -999.0 mph 87 % 0 in
03:59 36.0 °F 33.4 °F 30.06 in ESE 2.7 mph -999.0 mph 90 % 0 in
04:14 35.8 °F 33.2 °F 30.06 in NNW 2.7 mph -999.0 mph 90 % 0 in
04:29 35.6 °F 33.0 °F 30.06 in South 1.7 mph -999.0 mph 90 % 0 in
04:44 34.9 °F 32.3 °F 30.06 in Calm   -999.0 mph 90 % 0 in
04:59 33.6 °F 31.3 °F 30.07 in South 2.2 mph -999.0 mph 91 % 0 in
05:15 33.1 °F 30.8 °F 30.06 in Calm   -999.0 mph 91 % 0 in
05:30 32.9 °F 30.3 °F 30.07 in Calm   -999.0 mph 90 % 0 in
05:45 32.7 °F 28.7 °F 30.05 in Calm   -999.0 mph 85 % 0 in
06:00 32.2 °F 28.5 °F 30.05 in South 2.2 mph -999.0 mph 86 % 0 in
06:16 32.0 °F 28.8 °F 30.06 in WSW 1.1 mph -999.0 mph 88 % 0 in
06:31 34.0 °F 27.9 °F 30.06 in North 4.7 mph -999.0 mph 78 % 0 in
06:46 35.2 °F 28.1 °F 30.06 in NNE 2.2 mph -999.0 mph 75 % 0 in
07:02 36.0 °F 28.5 °F 30.05 in East 3.2 mph -999.0 mph 74 % 0 in
07:17 36.3 °F 29.8 °F 30.05 in NNW 3.2 mph -999.0 mph 77 % 0 in
07:32 35.8 °F 29.9 °F 30.06 in North 6.8 mph -999.0 mph 79 % 0 in
07:47 35.6 °F 29.7 °F 30.06 in WSW 2.2 mph -999.0 mph 79 % 0 in
08:03 36.0 °F 28.2 °F 30.06 in South 1.7 mph -999.0 mph 73 % 0 in
08:18 37.0 °F 28.1 °F 30.05 in NNW 7.3 mph -999.0 mph 70 % 0 in
08:33 37.2 °F 30.3 °F 30.06 in NNW 7.8 mph -999.0 mph 76 % 0 in
08:48 36.9 °F 31.3 °F 30.06 in WNW 5.8 mph -999.0 mph 80 % 0 in
09:03 36.3 °F 30.7 °F 30.07 in NNW 10.4 mph -999.0 mph 80 % 0 in
09:19 36.0 °F 30.4 °F 30.08 in NW 5.8 mph -999.0 mph 80 % 0 in
09:34 36.1 °F 31.1 °F 30.08 in NNW 6.3 mph -999.0 mph 82 % 0 in
09:49 36.7 °F 31.4 °F 30.09 in WNW 5.8 mph -999.0 mph 81 % 0 in
10:05 37.2 °F 31.9 °F 30.08 in WNW 5.8 mph -999.0 mph 81 % 0 in
10:21 38.3 °F 31.7 °F 30.09 in WNW 4.7 mph -999.0 mph 77 % 0 in
10:36 39.0 °F 29.7 °F 30.08 in North 2.2 mph -999.0 mph 69 % 0 in
10:52 41.0 °F 32.0 °F 30.09 in NW 4.7 mph -999.0 mph 70 % 0 in
11:07 43.3 °F 31.2 °F 30.08 in WNW 6.3 mph -999.0 mph 62 % 0 in
11:22 45.0 °F 27.0 °F 30.07 in NW 6.3 mph -999.0 mph 49 % 0 in
11:38 45.7 °F 27.1 °F 30.07 in NNE 8.3 mph -999.0 mph 48 % 0 in
11:53 45.5 °F 28.4 °F 30.07 in NNW 6.8 mph -999.0 mph 51 % 0 in
12:08 46.2 °F 30.0 °F 30.08 in NW 6.3 mph -999.0 mph 53 % 0 in
12:24 46.0 °F 32.0 °F 30.07 in NNW 5.8 mph -999.0 mph 58 % 0 in
12:39 47.1 °F 32.6 °F 30.07 in West 1.7 mph -999.0 mph 57 % 0 in
12:54 46.9 °F 31.1 °F 30.06 in North 5.8 mph -999.0 mph 54 % 0 in
13:09 47.7 °F 31.9 °F 30.06 in NW 5.3 mph -999.0 mph 54 % 0 in
13:25 48.4 °F 33.0 °F 30.06 in NNW 6.8 mph -999.0 mph 55 % 0 in
13:40 46.9 °F 25.0 °F 30.05 in NE 10.9 mph -999.0 mph 42 % 0 in
13:55 48.6 °F 27.7 °F 30.05 in North 8.3 mph -999.0 mph 44 % 0 in
14:11 48.7 °F 29.4 °F 30.05 in NW 7.8 mph -999.0 mph 47 % 0 in
14:26 47.7 °F 29.5 °F 30.05 in WNW 4.7 mph -999.0 mph 49 % 0 in
14:42 48.6 °F 28.7 °F 30.05 in North 6.3 mph -999.0 mph 46 % 0 in
14:57 48.4 °F 30.6 °F 30.05 in NW 8.9 mph -999.0 mph 50 % 0 in
15:12 47.1 °F 30.8 °F 30.04 in North 6.3 mph -999.0 mph 53 % 0 in
15:28 47.5 °F 30.7 °F 30.04 in West 4.7 mph -999.0 mph 52 % 0 in
15:43 47.3 °F 31.5 °F 30.03 in North 3.2 mph -999.0 mph 54 % 0 in
15:58 47.5 °F 31.7 °F 30.02 in West 6.8 mph -999.0 mph 54 % 0 in
16:13 45.7 °F 33.0 °F 30.02 in South 5.3 mph -999.0 mph 61 % 0 in
16:29 43.9 °F 23.4 °F 30.02 in WNW 4.2 mph -999.0 mph 44 % 0 in
16:44 43.3 °F 20.0 °F 30.02 in North 4.2 mph -999.0 mph 39 % 0 in
16:59 43.9 °F 23.9 °F 30.03 in South 3.7 mph -999.0 mph 45 % 0 in
17:14 44.4 °F 27.4 °F 30.03 in NW 5.8 mph -999.0 mph 51 % 0 in
17:30 43.2 °F 27.7 °F 30.03 in NNW 5.3 mph -999.0 mph 54 % 0 in
17:45 39.9 °F 27.9 °F 30.03 in NNW 10.4 mph -999.0 mph 62 % 0 in
18:00 38.3 °F 27.9 °F 30.03 in WNW 9.9 mph -999.0 mph 66 % 0 in
18:16 37.4 °F 27.8 °F 30.03 in West 11.4 mph -999.0 mph 68 % 0 in
18:31 36.7 °F 28.9 °F 30.02 in WNW 8.9 mph -999.0 mph 73 % 0 in
18:46 36.0 °F 28.2 °F 30.04 in North 6.8 mph -999.0 mph 73 % 0 in
19:02 34.9 °F 27.5 °F 30.04 in North 10.4 mph -999.0 mph 74 % 0 in
19:17 34.7 °F 28.2 °F 30.04 in NNW 8.3 mph -999.0 mph 77 % 0 in
19:33 34.2 °F 27.7 °F 30.04 in NNW 9.9 mph -999.0 mph 77 % 0 in
19:48 34.2 °F 28.4 °F 30.04 in NW 8.9 mph -999.0 mph 79 % 0 in
20:03 34.0 °F 28.2 °F 30.04 in North 8.9 mph -999.0 mph 79 % 0 in
20:18 33.8 °F 27.7 °F 30.05 in NNW 10.4 mph -999.0 mph 78 % 0 in
20:33 34.0 °F 28.2 °F 30.06 in NNE 7.8 mph -999.0 mph 79 % 0 in
20:49 33.8 °F 28.0 °F 30.07 in NNE 6.8 mph -999.0 mph 79 % 0 in
21:05 34.2 °F 27.4 °F 30.07 in NNW 5.8 mph -999.0 mph 76 % 0 in
21:20 33.1 °F 27.0 °F 30.09 in NW 6.3 mph -999.0 mph 78 % 0 in
21:35 33.4 °F 27.0 °F 30.10 in ENE 2.7 mph -999.0 mph 77 % 0 in
21:51 33.8 °F 26.4 °F 30.09 in NE 5.8 mph -999.0 mph 74 % 0 in
22:06 34.3 °F 26.5 °F 30.10 in NNW 4.7 mph -999.0 mph 73 % 0 in
22:21 34.7 °F 26.6 °F 30.10 in North 1.7 mph -999.0 mph 72 % 0 in
22:36 34.3 °F 26.9 °F 30.10 in NNW 2.7 mph -999.0 mph 74 % 0 in
22:52 35.6 °F 28.1 °F 30.11 in NNW 4.7 mph -999.0 mph 74 % 0 in
23:07 35.1 °F 27.6 °F 30.11 in NNW 4.7 mph -999.0 mph 74 % 0 in
23:22 35.2 °F 26.7 °F 30.12 in WNW 4.2 mph -999.0 mph 71 % 0 in
23:37 35.2 °F 26.7 °F 30.12 in NNW 4.7 mph -999.0 mph 71 % 0 in
23:52 35.2 °F 25.3 °F 30.12 in NW 5.8 mph -999.0 mph 67 % 0 in
Big Bear CA Weather
Compliments of Weather Underground - 1.5 mb